Time;durP1;ratioP1;P1;durP2;ratioP2;P2;SDS_P1;SDS_P2;PMS_P1;PMS_P2;Temp;Humidity;BMP_temperature;BMP_pressure;BME280_temperature;BME280_humidity;BME280_pressure;Samples;Min_cycle;Max_cycle;Signal;HPM_P1;HPM_P2
2023/09/12 00:01:41;;;;;;;26.63;19.27;;;18.90;99.90;;;;;;5158898;27;20043;-76
2023/09/12 00:04:07;;;;;;;30.02;20.60;;;18.90;99.90;;;;;;5158675;27;20051;-75
2023/09/12 00:06:32;;;;;;;28.48;19.65;;;19.00;99.90;;;;;;5148283;27;20047;-75
2023/09/12 00:08:58;;;;;;;28.60;18.65;;;19.00;99.90;;;;;;5138241;27;20391;-76
2023/09/12 00:11:25;;;;;;;27.48;19.17;;;19.10;99.90;;;;;;5119405;27;20058;-77
2023/09/12 00:13:51;;;;;;;26.77;18.35;;;19.10;99.90;;;;;;5138031;27;20047;-76
2023/09/12 00:16:17;;;;;;;26.77;18.98;;;19.10;99.90;;;;;;5119069;27;20051;-76
2023/09/12 00:18:42;;;;;;;26.13;18.58;;;19.10;99.90;;;;;;5137929;27;20040;-76
2023/09/12 00:21:08;;;;;;;28.02;18.40;;;19.20;99.90;;;;;;5138086;27;20115;-76
2023/09/12 00:23:35;;;;;;;27.20;18.90;;;19.30;99.90;;;;;;5137790;27;20047;-75
2023/09/12 00:26:00;;;;;;;25.20;18.35;;;19.30;99.90;;;;;;5119596;27;20488;-76
2023/09/12 00:28:26;;;;;;;26.95;19.08;;;19.30;99.90;;;;;;5119407;27;20057;-76
2023/09/12 00:30:52;;;;;;;25.90;19.08;;;19.40;99.90;;;;;;5138125;27;20039;-76
2023/09/12 00:33:18;;;;;;;24.35;18.02;;;19.40;99.90;;;;;;5150038;27;20499;-76
2023/09/12 00:35:45;;;;;;;24.73;17.00;;;19.40;99.90;;;;;;5158403;27;20071;-76
2023/09/12 00:38:11;;;;;;;27.17;18.10;;;19.40;99.90;;;;;;5158203;27;20054;-76
2023/09/12 00:40:37;;;;;;;28.50;19.15;;;19.40;99.90;;;;;;5158112;27;20050;-76
2023/09/12 00:43:03;;;;;;;24.55;18.30;;;19.40;99.90;;;;;;5157836;27;20378;-75
2023/09/12 00:45:29;;;;;;;27.83;19.88;;;19.40;99.90;;;;;;5157686;27;20117;-77
2023/09/12 00:47:58;;;;;;;28.52;19.08;;;19.40;99.90;;;;;;5157004;27;20199;-76
2023/09/12 00:50:25;;;;;;;27.02;19.23;;;19.40;99.90;;;;;;5158383;27;20386;-76
2023/09/12 00:52:51;;;;;;;25.73;18.65;;;19.40;99.90;;;;;;5139987;27;20050;-76
2023/09/12 00:55:17;;;;;;;26.52;19.17;;;19.40;99.90;;;;;;5158162;27;20410;-77
2023/09/12 00:57:43;;;;;;;28.20;17.85;;;19.40;99.90;;;;;;5157852;27;20039;-76
2023/09/12 01:00:12;;;;;;;25.35;17.60;;;19.40;99.90;;;;;;5157925;27;20050;-77
2023/09/12 01:02:46;;;;;;;26.75;18.75;;;19.50;99.90;;;;;;5157730;27;20045;-77
2023/09/12 01:05:14;;;;;;;25.25;17.88;;;19.50;99.90;;;;;;5157641;27;20372;-75
2023/09/12 01:07:43;;;;;;;27.80;19.20;;;19.50;99.90;;;;;;5137796;27;20078;-76
2023/09/12 01:10:09;;;;;;;24.95;18.05;;;19.50;99.90;;;;;;5136537;27;20091;-76
2023/09/12 01:12:36;;;;;;;28.58;18.83;;;19.50;99.90;;;;;;5136960;27;20134;-76
2023/09/12 01:15:05;;;;;;;27.02;17.55;;;19.50;99.90;;;;;;5136482;27;20043;-75
2023/09/12 01:17:31;;;;;;;25.67;17.75;;;19.50;99.90;;;;;;5118414;27;20046;-75
2023/09/12 01:19:59;;;;;;;25.38;19.05;;;19.40;99.90;;;;;;5136507;27;20051;-77
2023/09/12 01:22:42;;;;;;;27.02;18.83;;;19.50;99.90;;;;;;5136224;27;20043;-76
2023/09/12 01:25:29;;;;;;;27.55;18.98;;;19.50;99.90;;;;;;5136729;27;20046;-76
2023/09/12 01:27:58;;;;;;;23.02;17.38;;;19.50;99.90;;;;;;5136556;27;20051;-76
2023/09/12 01:30:27;;;;;;;26.92;18.08;;;19.40;99.90;;;;;;5118738;27;20043;-76
2023/09/12 01:32:54;;;;;;;24.55;16.95;;;19.30;99.90;;;;;;5145146;27;20563;-76
2023/09/12 01:35:20;;;;;;;24.23;16.33;;;19.10;99.90;;;;;;5157283;27;20122;-77
2023/09/12 01:37:45;;;;;;;24.63;16.95;;;19.10;99.90;;;;;;5157203;27;20525;-77
2023/09/12 01:40:12;;;;;;;23.27;17.50;;;18.90;99.90;;;;;;5157145;27;20047;-77
2023/09/12 01:42:42;;;;;;;24.73;17.45;;;18.80;99.90;;;;;;5157189;27;20082;-76
2023/09/12 01:45:13;;;;;;;26.42;17.50;;;18.70;99.90;;;;;;5156515;27;20049;-76
2023/09/12 01:47:40;;;;;;;22.92;16.73;;;18.60;99.90;;;;;;5156742;27;20047;-75
2023/09/12 01:50:08;;;;;;;23.85;16.70;;;18.60;99.90;;;;;;5156893;27;20554;-75
2023/09/12 01:52:35;;;;;;;24.02;15.05;;;18.60;99.90;;;;;;5157064;27;20050;-75
2023/09/12 01:55:02;;;;;;;19.05;14.45;;;18.60;99.90;;;;;;5156993;27;20083;-75
2023/09/12 01:57:29;;;;;;;24.02;16.63;;;18.60;99.90;;;;;;5156518;27;20042;-75
2023/09/12 01:59:54;;;;;;;73.82;17.77;;;18.60;99.90;;;;;;5156311;27;20145;-76
2023/09/12 02:02:20;;;;;;;28.25;16.10;;;18.50;99.90;;;;;;5156105;27;20043;-75
2023/09/12 02:05:15;;;;;;;23.48;16.08;;;18.40;99.90;;;;;;5156638;27;20053;-75
2023/09/12 02:07:42;;;;;;;24.98;16.38;;;18.20;99.90;;;;;;5133111;27;20055;-76
2023/09/12 02:10:08;;;;;;;26.77;17.50;;;18.10;99.90;;;;;;5135401;27;20517;-75
2023/09/12 02:12:34;;;;;;;28.73;18.10;;;18.00;99.90;;;;;;5136157;27;20048;-76
2023/09/12 02:15:00;;;;;;;27.63;18.45;;;18.00;99.90;;;;;;5117340;27;20058;-74
2023/09/12 02:17:26;;;;;;;27.33;18.25;;;18.00;99.90;;;;;;5135678;27;20069;-75
2023/09/12 02:19:51;;;;;;;31.30;18.95;;;18.00;99.90;;;;;;5135635;27;20039;-76
2023/09/12 02:22:17;;;;;;;33.20;20.40;;;18.00;99.90;;;;;;5136087;27;20375;-76
2023/09/12 02:24:43;;;;;;;26.60;18.08;;;18.10;99.90;;;;;;5117237;27;20125;-76
2023/09/12 02:27:08;;;;;;;26.77;18.13;;;18.10;99.90;;;;;;5135666;27;20043;-76
2023/09/12 02:29:34;;;;;;;119.25;22.63;;;18.10;99.90;;;;;;5117136;27;20113;-76
2023/09/12 02:32:00;;;;;;;91.35;21.60;;;18.10;99.90;;;;;;5118627;27;20047;-75
2023/09/12 02:34:26;;;;;;;210.25;27.38;;;18.10;99.90;;;;;;5156150;27;20046;-76
2023/09/12 02:36:52;;;;;;;200.52;23.45;;;18.20;99.90;;;;;;5157405;27;20043;-76
2023/09/12 02:39:17;;;;;;;196.85;26.88;;;18.10;99.90;;;;;;5157882;27;20074;-76
2023/09/12 02:41:43;;;;;;;164.75;25.05;;;18.00;99.90;;;;;;5157894;27;20035;-76
2023/09/12 02:44:09;;;;;;;189.57;26.05;;;18.00;99.90;;;;;;5156324;27;20064;-77
2023/09/12 02:46:37;;;;;;;248.45;27.98;;;18.00;99.90;;;;;;5136791;27;20078;-77
2023/09/12 02:49:03;;;;;;;110.05;20.58;;;18.00;99.90;;;;;;5137643;27;20054;-76
2023/09/12 02:51:29;;;;;;;193.75;26.30;;;18.00;99.90;;;;;;5137593;27;20042;-76
2023/09/12 02:53:55;;;;;;;172.77;23.20;;;18.00;99.90;;;;;;5137491;27;20394;-76
2023/09/12 02:56:21;;;;;;;213.73;24.83;;;18.10;99.90;;;;;;5155917;27;20092;-76
2023/09/12 02:58:47;;;;;;;174.88;27.17;;;18.00;99.90;;;;;;5155118;27;20551;-77
2023/09/12 03:01:19;;;;;;;205.07;25.67;;;17.90;99.90;;;;;;5155227;27;20043;-77
2023/09/12 03:03:49;;;;;;;206.10;26.88;;;17.90;99.90;;;;;;5155698;27;20048;-76
2023/09/12 03:06:15;;;;;;;160.20;21.60;;;17.80;99.90;;;;;;5129455;27;20062;-76
2023/09/12 03:08:41;;;;;;;138.52;22.48;;;17.80;99.90;;;;;;5134855;27;20078;-77
2023/09/12 03:11:07;;;;;;;144.85;23.33;;;17.80;99.90;;;;;;5115749;27;20051;-76
2023/09/12 03:13:34;;;;;;;113.18;22.48;;;17.70;99.90;;;;;;5134211;27;20047;-76
2023/09/12 03:16:00;;;;;;;166.65;25.45;;;17.70;99.90;;;;;;5133747;27;20043;-77
2023/09/12 03:18:26;;;;;;;149.32;25.08;;;17.70;99.90;;;;;;5099795;27;20055;-76
2023/09/12 03:20:52;;;;;;;113.75;22.40;;;17.70;99.90;;;;;;5135234;27;20049;-78
2023/09/12 03:23:19;;;;;;;183.70;28.73;;;17.80;99.90;;;;;;5134409;27;20428;-77
2023/09/12 03:25:45;;;;;;;117.03;24.13;;;17.80;99.90;;;;;;5116026;28;20043;-76
2023/09/12 03:28:10;;;;;;;110.00;22.92;;;17.80;99.90;;;;;;5134098;27;20134;-77
2023/09/12 03:30:37;;;;;;;114.35;22.52;;;17.80;99.90;;;;;;5134972;27;20068;-75
2023/09/12 03:33:04;;;;;;;98.50;20.77;;;17.90;99.90;;;;;;5145051;27;20042;-76
2023/09/12 03:35:32;;;;;;;124.82;23.83;;;17.90;99.90;;;;;;5155232;27;20081;-76
2023/09/12 03:37:58;;;;;;;134.02;23.35;;;17.90;99.90;;;;;;5155100;27;20076;-76
2023/09/12 03:40:24;;;;;;;127.63;22.83;;;17.90;99.90;;;;;;5155218;27;20049;-76
2023/09/12 03:42:50;;;;;;;95.75;21.10;;;17.90;99.90;;;;;;5155050;27;20095;-76
2023/09/12 03:45:15;;;;;;;95.90;19.88;;;17.90;99.90;;;;;;5154736;27;20039;-76
2023/09/12 03:47:42;;;;;;;105.32;22.23;;;17.90;99.90;;;;;;5136762;27;20482;-76
2023/09/12 03:50:08;;;;;;;120.03;22.83;;;17.90;99.90;;;;;;5154857;27;20403;-76
2023/09/12 03:52:34;;;;;;;76.50;20.75;;;17.90;99.90;;;;;;5154466;27;20071;-76
2023/09/12 03:55:00;;;;;;;92.75;21.83;;;17.90;99.90;;;;;;5155086;27;20394;-78
2023/09/12 03:57:26;;;;;;;84.47;21.17;;;17.90;99.90;;;;;;5154933;27;20080;-76
2023/09/12 03:59:52;;;;;;;84.45;21.15;;;17.90;99.90;;;;;;5154905;27;20428;-78
2023/09/12 04:02:18;;;;;;;83.18;21.88;;;17.90;99.90;;;;;;5136414;27;20042;-77
2023/09/12 04:04:44;;;;;;;67.65;19.92;;;17.90;99.90;;;;;;5154708;27;20094;-76
2023/09/12 04:07:10;;;;;;;65.97;18.80;;;17.80;99.90;;;;;;5120531;28;20043;-77
2023/09/12 04:09:36;;;;;;;87.28;20.10;;;17.80;99.90;;;;;;5134021;28;20039;-75
2023/09/12 04:12:02;;;;;;;96.63;19.52;;;17.80;99.90;;;;;;5133703;28;20407;-74
2023/09/12 04:14:27;;;;;;;81.10;19.13;;;17.80;99.90;;;;;;5116603;28;20084;-76
2023/09/12 04:16:53;;;;;;;89.93;20.33;;;17.80;99.90;;;;;;5133186;28;20134;-77
2023/09/12 04:19:19;;;;;;;87.93;19.20;;;17.80;99.90;;;;;;5134031;28;20043;-77
2023/09/12 04:21:44;;;;;;;79.68;19.50;;;17.80;99.90;;;;;;5136988;27;20430;-77
2023/09/12 04:24:10;;;;;;;111.25;20.42;;;17.80;99.90;;;;;;5145587;27;20047;-77
2023/09/12 04:26:36;;;;;;;103.78;18.95;;;17.80;99.90;;;;;;5147781;27;20118;-76
2023/09/12 04:29:02;;;;;;;72.93;18.55;;;17.80;99.90;;;;;;5158352;27;20469;-76
2023/09/12 04:31:28;;;;;;;68.55;18.90;;;17.80;99.90;;;;;;5142301;27;20082;-77
2023/09/12 04:33:54;;;;;;;76.15;18.88;;;17.80;99.90;;;;;;5155255;27;20095;-77
2023/09/12 04:36:20;;;;;;;83.45;19.25;;;17.80;99.90;;;;;;5158476;27;20046;-76
2023/09/12 04:38:46;;;;;;;63.33;18.85;;;17.80;99.90;;;;;;5153142;27;20131;-76
2023/09/12 04:41:16;;;;;;;76.65;19.85;;;17.80;99.90;;;;;;5137595;27;20075;-77
2023/09/12 04:43:44;;;;;;;89.28;19.50;;;17.80;99.90;;;;;;5137429;27;20113;-77
2023/09/12 04:46:10;;;;;;;46.85;17.35;;;17.80;99.90;;;;;;5136897;27;20043;-76
2023/09/12 04:48:36;;;;;;;55.45;18.83;;;17.80;99.90;;;;;;5137390;27;20059;-76
2023/09/12 04:51:01;;;;;;;51.13;17.30;;;17.80;99.90;;;;;;5137497;27;20050;-75
2023/09/12 04:53:33;;;;;;;29.80;16.80;;;17.80;99.90;;;;;;5137513;27;20383;-75
2023/09/12 04:55:59;;;;;;;31.20;16.55;;;17.80;99.90;;;;;;5143625;27;20074;-75
2023/09/12 04:58:25;;;;;;;26.67;16.30;;;17.80;99.90;;;;;;5157990;27;20501;-76
2023/09/12 05:00:50;;;;;;;31.52;15.50;;;17.80;99.90;;;;;;5139295;27;20074;-75
2023/09/12 05:03:16;;;;;;;21.30;16.02;;;17.90;99.90;;;;;;5157820;27;20090;-75
2023/09/12 05:05:44;;;;;;;30.15;16.48;;;17.90;99.90;;;;;;5157710;27;20038;-75
2023/09/12 05:08:10;;;;;;;25.48;16.38;;;18.00;99.90;;;;;;5157270;27;20398;-75
2023/09/12 05:10:37;;;;;;;26.48;16.17;;;18.00;99.90;;;;;;5157302;27;20051;-75
2023/09/12 05:13:03;;;;;;;29.35;16.27;;;18.00;99.90;;;;;;5139083;27;20088;-75
2023/09/12 05:15:29;;;;;;;37.13;16.90;;;18.10;99.90;;;;;;5156692;27;20126;-75
2023/09/12 05:17:54;;;;;;;24.15;16.92;;;18.10;99.90;;;;;;5157325;27;20117;-75
2023/09/12 05:20:20;;;;;;;24.08;17.38;;;18.10;99.90;;;;;;5157440;27;20039;-75
2023/09/12 05:22:46;;;;;;;25.90;17.08;;;18.10;99.90;;;;;;5157744;27;20527;-75
2023/09/12 05:25:11;;;;;;;26.80;16.58;;;18.10;99.90;;;;;;5157169;27;20402;-74
2023/09/12 05:27:37;;;;;;;25.80;17.40;;;18.10;99.90;;;;;;5156952;27;20064;-75
2023/09/12 05:30:03;;;;;;;24.10;16.05;;;18.10;99.90;;;;;;5151488;27;20043;-75
2023/09/12 05:32:29;;;;;;;29.17;18.02;;;18.20;99.90;;;;;;5142031;27;20115;-76
2023/09/12 05:34:54;;;;;;;26.45;16.08;;;18.20;99.90;;;;;;5156567;27;20043;-77
2023/09/12 05:37:20;;;;;;;23.83;16.70;;;18.20;99.90;;;;;;5138823;27;20082;-75
2023/09/12 05:39:46;;;;;;;25.17;16.95;;;18.10;99.90;;;;;;5157113;27;20078;-76
2023/09/12 05:42:12;;;;;;;24.92;16.83;;;18.20;99.90;;;;;;5156999;27;20490;-75
2023/09/12 05:44:38;;;;;;;27.70;16.90;;;18.20;99.90;;;;;;5138225;27;20436;-74
2023/09/12 05:47:04;;;;;;;24.05;16.73;;;18.10;99.90;;;;;;5137978;27;20448;-75
2023/09/12 05:49:29;;;;;;;22.75;16.08;;;18.10;99.90;;;;;;5156734;27;20468;-75
2023/09/12 05:51:55;;;;;;;25.95;16.15;;;18.10;99.90;;;;;;5156957;27;20121;-75
2023/09/12 05:54:20;;;;;;;25.85;15.77;;;18.10;99.90;;;;;;5157079;27;20519;-75
2023/09/12 05:56:48;;;;;;;24.48;16.02;;;18.10;99.90;;;;;;5157446;27;20122;-75
2023/09/12 05:59:13;;;;;;;24.80;15.75;;;18.10;99.90;;;;;;5157209;27;20084;-75
2023/09/12 06:01:40;;;;;;;25.55;17.23;;;18.10;99.90;;;;;;5156355;27;20413;-75
2023/09/12 06:04:06;;;;;;;35.70;17.55;;;18.10;99.90;;;;;;5156664;27;20100;-76
2023/09/12 06:06:31;;;;;;;27.27;16.75;;;18.10;99.90;;;;;;5156597;27;20078;-75
2023/09/12 06:08:58;;;;;;;28.80;15.93;;;18.10;99.90;;;;;;5138438;27;20049;-75
2023/09/12 06:11:24;;;;;;;42.25;18.10;;;18.10;99.90;;;;;;5137804;27;20069;-77
2023/09/12 06:13:49;;;;;;;30.38;16.70;;;18.10;99.90;;;;;;5156525;27;20451;-76
2023/09/12 06:16:15;;;;;;;27.95;17.33;;;18.10;99.90;;;;;;5156161;27;20078;-76
2023/09/12 06:18:41;;;;;;;28.20;17.10;;;18.10;99.90;;;;;;5156270;27;20394;-76
2023/09/12 06:21:08;;;;;;;29.80;17.42;;;18.10;99.90;;;;;;5137658;27;20387;-75
2023/09/12 06:23:34;;;;;;;30.17;18.40;;;18.10;99.90;;;;;;5137303;27;20424;-76
2023/09/12 06:26:00;;;;;;;35.42;17.30;;;18.20;99.90;;;;;;5155913;27;20129;-76
2023/09/12 06:28:27;;;;;;;24.67;16.23;;;18.10;99.90;;;;;;5137855;27;20121;-76
2023/09/12 06:30:53;;;;;;;29.40;17.00;;;18.10;99.90;;;;;;5143140;27;20043;-76
2023/09/12 06:33:18;;;;;;;32.63;16.90;;;18.10;99.90;;;;;;5147762;27;20539;-76
2023/09/12 06:35:48;;;;;;;26.27;16.15;;;18.10;99.90;;;;;;5120517;27;20046;-76
2023/09/12 06:38:14;;;;;;;26.13;16.50;;;18.10;99.90;;;;;;5137706;27;20042;-75
2023/09/12 06:40:39;;;;;;;25.65;16.77;;;18.10;99.90;;;;;;5155982;27;20075;-76
2023/09/12 06:43:05;;;;;;;25.48;16.75;;;18.00;99.90;;;;;;5155561;27;20105;-75
2023/09/12 06:45:32;;;;;;;28.90;17.90;;;18.00;99.90;;;;;;5154803;27;20038;-75
2023/09/12 06:47:58;;;;;;;28.05;17.92;;;18.00;99.90;;;;;;5155684;27;20054;-76
2023/09/12 06:50:24;;;;;;;31.40;19.05;;;18.00;99.90;;;;;;5137461;27;20386;-76
2023/09/12 06:52:49;;;;;;;28.38;17.73;;;18.00;99.90;;;;;;5155452;27;20042;-76
2023/09/12 06:55:15;;;;;;;29.20;18.55;;;18.00;99.90;;;;;;5137054;27;20050;-75
2023/09/12 06:57:42;;;;;;;28.00;17.77;;;18.00;99.90;;;;;;5155900;27;20039;-76
2023/09/12 07:00:08;;;;;;;29.85;18.92;;;18.00;99.90;;;;;;5136563;27;20406;-76
2023/09/12 07:02:34;;;;;;;33.05;19.50;;;18.00;99.90;;;;;;5155004;27;20039;-76
2023/09/12 07:05:00;;;;;;;30.33;17.67;;;18.10;99.90;;;;;;5155486;27;20399;-76
2023/09/12 07:07:25;;;;;;;27.95;18.27;;;18.20;99.90;;;;;;5155653;27;20043;-75
2023/09/12 07:09:51;;;;;;;30.70;18.67;;;18.30;99.90;;;;;;5155686;27;20043;-76
2023/09/12 07:12:17;;;;;;;28.48;18.63;;;18.40;99.90;;;;;;5136811;27;20054;-76
2023/09/12 07:14:42;;;;;;;31.73;20.23;;;18.50;99.90;;;;;;5155200;27;20486;-75
2023/09/12 07:17:08;;;;;;;35.25;20.98;;;18.50;99.90;;;;;;5155020;27;20091;-76
2023/09/12 07:19:34;;;;;;;34.45;19.42;;;18.50;99.90;;;;;;5155480;27;20074;-77
2023/09/12 07:21:59;;;;;;;32.90;19.10;;;18.50;99.90;;;;;;5155068;27;20035;-76
2023/09/12 07:24:26;;;;;;;33.63;19.38;;;18.50;99.90;;;;;;5155218;27;20046;-77
2023/09/12 07:26:52;;;;;;;29.13;17.83;;;18.40;99.90;;;;;;5155091;27;20053;-76
2023/09/12 07:29:17;;;;;;;32.55;18.40;;;18.40;99.90;;;;;;5155745;27;20046;-76
2023/09/12 07:31:43;;;;;;;31.88;18.55;;;18.40;99.90;;;;;;5135061;27;20043;-76
2023/09/12 07:34:09;;;;;;;29.10;18.23;;;18.40;99.90;;;;;;5154175;27;20046;-77
2023/09/12 07:36:36;;;;;;;32.22;18.77;;;18.40;99.90;;;;;;5155031;27;20082;-77
2023/09/12 07:39:03;;;;;;;26.50;17.58;;;18.40;99.90;;;;;;5154481;27;20121;-76
2023/09/12 07:41:29;;;;;;;30.73;19.08;;;18.40;99.90;;;;;;5154909;27;20054;-77
2023/09/12 07:43:54;;;;;;;29.27;18.65;;;18.40;99.90;;;;;;5155115;27;20038;-76
2023/09/12 07:46:20;;;;;;;27.27;17.83;;;18.30;99.90;;;;;;5154531;27;20050;-76
2023/09/12 07:48:46;;;;;;;29.23;18.30;;;18.30;99.90;;;;;;5154525;27;20506;-76
2023/09/12 07:51:17;;;;;;;30.33;19.08;;;18.30;99.90;;;;;;5154948;27;20050;-76
2023/09/12 07:53:43;;;;;;;30.83;18.58;;;18.30;99.90;;;;;;5155394;27;20049;-75
2023/09/12 07:56:10;;;;;;;30.33;18.80;;;18.30;99.90;;;;;;5154999;27;20057;-75
2023/09/12 07:58:36;;;;;;;30.75;18.67;;;18.30;99.90;;;;;;5158348;27;20046;-75
2023/09/12 08:01:06;;;;;;;29.10;17.75;;;18.30;99.90;;;;;;5160215;27;20049;-76
2023/09/12 08:03:33;;;;;;;31.63;18.55;;;18.30;99.90;;;;;;5161237;27;20121;-77
2023/09/12 08:05:58;;;;;;;31.90;19.23;;;18.30;99.90;;;;;;5161343;27;20084;-76
2023/09/12 08:08:24;;;;;;;30.25;17.88;;;18.40;99.90;;;;;;5160421;27;20432;-76
2023/09/12 08:10:50;;;;;;;30.95;18.35;;;18.40;99.90;;;;;;5158702;27;20058;-76
2023/09/12 08:13:16;;;;;;;30.60;18.90;;;18.40;99.90;;;;;;5140456;27;20101;-77
2023/09/12 08:15:41;;;;;;;29.85;18.45;;;18.40;99.90;;;;;;5139301;27;20042;-77
2023/09/12 08:18:07;;;;;;;31.65;18.27;;;18.50;99.90;;;;;;5158264;27;20086;-76
2023/09/12 08:20:33;;;;;;;28.33;18.70;;;18.50;99.90;;;;;;5158610;27;20208;-76
2023/09/12 08:22:58;;;;;;;28.67;17.92;;;18.60;99.90;;;;;;5158266;27;20035;-77
2023/09/12 08:25:24;;;;;;;29.98;18.48;;;18.70;99.90;;;;;;5158606;27;20060;-77
2023/09/12 08:27:50;;;;;;;27.40;16.85;;;18.80;99.90;;;;;;5158495;27;20490;-77
2023/09/12 08:30:16;;;;;;;29.58;18.38;;;18.90;99.90;;;;;;5150795;27;20058;-78
2023/09/12 08:32:45;;;;;;;31.65;18.80;;;19.00;99.90;;;;;;5145046;27;20041;-77
2023/09/12 08:35:12;;;;;;;30.80;17.83;;;19.10;99.90;;;;;;5158387;27;20046;-78
2023/09/12 08:37:42;;;;;;;30.05;18.73;;;19.20;99.90;;;;;;5158283;27;20039;-76
2023/09/12 08:40:10;;;;;;;29.92;16.90;;;19.30;99.90;;;;;;5158612;27;20046;-77
2023/09/12 08:42:40;;;;;;;26.08;15.45;;;19.30;99.90;;;;;;5158029;27;20078;-77
2023/09/12 08:45:12;;;;;;;25.60;15.40;;;19.40;99.90;;;;;;5158069;27;20121;-76
2023/09/12 08:47:40;;;;;;;24.05;14.73;;;19.50;99.90;;;;;;5157492;27;20563;-77
2023/09/12 08:50:11;;;;;;;24.38;15.45;;;19.50;99.90;;;;;;5140281;27;20046;-76
2023/09/12 08:52:36;;;;;;;26.30;16.33;;;19.50;99.90;;;;;;5158146;27;20071;-76
2023/09/12 08:55:03;;;;;;;24.30;15.75;;;19.50;99.90;;;;;;5157657;27;20047;-77
2023/09/12 08:57:32;;;;;;;24.20;15.30;;;19.50;99.90;;;;;;5139323;27;20042;-77
2023/09/12 09:00:02;;;;;;;26.77;16.42;;;19.60;99.90;;;;;;5157933;27;20047;-77
2023/09/12 09:02:30;;;;;;;22.42;14.70;;;19.70;99.90;;;;;;5157483;27;20399;-76
2023/09/12 09:04:57;;;;;;;22.77;15.05;;;19.70;99.90;;;;;;5157876;27;20050;-76
2023/09/12 09:07:24;;;;;;;22.92;16.08;;;19.80;99.90;;;;;;5157851;27;20053;-77
2023/09/12 09:09:51;;;;;;;25.48;15.77;;;19.80;99.90;;;;;;5157258;27;20053;-78
2023/09/12 09:12:17;;;;;;;26.45;15.60;;;19.90;99.90;;;;;;5157221;27;20097;-76
2023/09/12 09:14:43;;;;;;;24.90;15.15;;;20.00;99.90;;;;;;5157643;27;20093;-76
2023/09/12 09:17:11;;;;;;;22.85;14.40;;;20.00;99.90;;;;;;5157127;27;20042;-77
2023/09/12 09:19:44;;;;;;;22.75;15.10;;;20.10;99.90;;;;;;5139451;27;20065;-77
2023/09/12 09:22:10;;;;;;;22.88;14.70;;;20.00;99.90;;;;;;5157501;27;20042;-76
2023/09/12 09:24:36;;;;;;;25.98;15.68;;;20.00;99.90;;;;;;5157532;27;20042;-76
2023/09/12 09:27:02;;;;;;;23.17;14.73;;;20.00;99.90;;;;;;5157471;27;20050;-77
2023/09/12 09:29:31;;;;;;;24.42;15.13;;;20.00;99.90;;;;;;5156832;27;20042;-76
2023/09/12 09:31:59;;;;;;;25.33;15.27;;;20.00;99.90;;;;;;5137074;27;20058;-76
2023/09/12 09:34:28;;;;;;;23.15;14.38;;;20.00;99.90;;;;;;5156794;27;20114;-76
2023/09/12 09:36:56;;;;;;;25.77;15.25;;;20.00;99.90;;;;;;5157192;27;20066;-77
2023/09/12 09:39:27;;;;;;;25.05;15.73;;;20.00;99.90;;;;;;5157256;27;20046;-76
2023/09/12 09:41:55;;;;;;;25.33;15.60;;;20.10;99.90;;;;;;5157261;27;20386;-76
2023/09/12 09:44:22;;;;;;;22.58;14.82;;;20.20;99.90;;;;;;5157052;27;20047;-77
2023/09/12 09:46:54;;;;;;;21.95;14.45;;;20.20;99.90;;;;;;5156478;27;20513;-77
2023/09/12 09:49:21;;;;;;;19.42;13.55;;;20.30;99.90;;;;;;5157188;27;20046;-75
2023/09/12 09:51:47;;;;;;;21.05;13.98;;;20.40;99.90;;;;;;5157268;27;20042;-76
2023/09/12 09:54:14;;;;;;;24.10;14.27;;;20.70;99.90;;;;;;5138731;27;20047;-77
2023/09/12 09:56:52;;;;;;;22.23;14.70;;;20.80;99.90;;;;;;5156949;27;20125;-76
2023/09/12 09:59:21;;;;;;;22.27;14.23;;;20.90;99.90;;;;;;5156729;27;20047;-76
2023/09/12 10:01:49;;;;;;;20.88;13.75;;;21.00;99.90;;;;;;5156562;27;20430;-76
2023/09/12 10:04:15;;;;;;;20.17;13.35;;;21.20;99.90;;;;;;5156887;27;20390;-76
2023/09/12 10:06:43;;;;;;;20.42;13.52;;;21.30;99.90;;;;;;5156645;27;20047;-75
2023/09/12 10:09:11;;;;;;;21.73;14.02;;;21.40;99.90;;;;;;5138234;27;20360;-76
2023/09/12 10:11:39;;;;;;;20.48;13.60;;;21.50;99.90;;;;;;5155578;27;20062;-76
2023/09/12 10:14:06;;;;;;;19.80;13.32;;;21.60;99.90;;;;;;5156421;27;20479;-76
2023/09/12 10:16:49;;;;;;;18.95;12.45;;;21.90;99.90;;;;;;5155944;27;20051;-76
2023/09/12 10:19:25;;;;;;;18.90;12.38;;;22.10;99.90;;;;;;5156295;27;20509;-77
2023/09/12 10:22:12;;;;;;;17.15;12.30;;;22.30;99.90;;;;;;5155537;27;20042;-76
2023/09/12 10:24:39;;;;;;;16.08;11.55;;;22.30;99.90;;;;;;5156230;27;20050;-76
2023/09/12 10:27:06;;;;;;;16.92;11.88;;;22.10;99.90;;;;;;5156251;27;20091;-77
2023/09/12 10:29:32;;;;;;;17.30;11.63;;;22.10;99.90;;;;;;5154974;27;20082;-75
2023/09/12 10:31:58;;;;;;;16.40;10.93;;;22.30;99.90;;;;;;5136088;27;20118;-76
2023/09/12 10:34:26;;;;;;;16.15;11.38;;;22.60;99.90;;;;;;5156207;27;20040;-76
2023/09/12 10:36:55;;;;;;;17.70;11.55;;;22.90;99.90;;;;;;5156064;27;20039;-77
2023/09/12 10:39:22;;;;;;;15.50;11.15;;;22.90;99.90;;;;;;5155939;27;20043;-76
2023/09/12 10:41:51;;;;;;;13.73;10.43;;;22.80;99.90;;;;;;5155861;27;20049;-76
2023/09/12 10:44:17;;;;;;;13.80;10.35;;;22.80;99.90;;;;;;5155999;27;20047;-76
2023/09/12 10:46:45;;;;;;;15.55;10.43;;;22.80;99.90;;;;;;5155120;27;20042;-77
2023/09/12 10:49:12;;;;;;;14.48;10.25;;;22.70;99.90;;;;;;5155363;27;20050;-76
2023/09/12 10:51:43;;;;;;;17.58;11.60;;;22.50;99.90;;;;;;5155658;27;20051;-77
2023/09/12 10:54:14;;;;;;;17.58;11.48;;;22.40;99.90;;;;;;5137142;27;20046;-76
2023/09/12 10:56:41;;;;;;;14.80;10.63;;;22.30;99.90;;;;;;5137277;27;20432;-76
2023/09/12 10:59:06;;;;;;;18.25;12.20;;;22.20;99.90;;;;;;5156199;27;20282;-77
2023/09/12 11:01:40;;;;;;;16.90;11.82;;;22.30;99.90;;;;;;5155408;27;20155;-76
2023/09/12 11:04:24;;;;;;;15.55;11.15;;;22.30;99.90;;;;;;5155434;27;20038;-77
2023/09/12 11:06:50;;;;;;;15.65;10.77;;;22.40;99.90;;;;;;5155238;27;20046;-76
2023/09/12 11:09:26;;;;;;;16.73;11.48;;;22.50;99.90;;;;;;5137052;27;20050;-76
2023/09/12 11:12:03;;;;;;;17.77;11.90;;;22.70;99.90;;;;;;5136949;27;20519;-76
2023/09/12 11:14:29;;;;;;;16.02;11.32;;;22.70;99.90;;;;;;5155588;27;20050;-76
2023/09/12 11:17:07;;;;;;;16.33;11.90;;;22.70;99.90;;;;;;5154883;27;20420;-76
2023/09/12 11:20:04;;;;;;;16.30;12.07;;;22.60;99.90;;;;;;5137149;27;20054;-76
2023/09/12 11:22:31;;;;;;;17.77;12.55;;;22.60;99.90;;;;;;5153902;27;20057;-75
2023/09/12 11:25:02;;;;;;;16.88;12.43;;;22.50;99.90;;;;;;5155123;27;20422;-76
2023/09/12 11:27:43;;;;;;;15.73;11.23;;;22.60;99.90;;;;;;5154957;27;20398;-76
2023/09/12 11:30:10;;;;;;;14.73;10.48;;;22.70;99.90;;;;;;5130817;27;20059;-77
2023/09/12 11:32:36;;;;;;;15.20;10.27;;;22.80;99.90;;;;;;5140290;27;20039;-76
2023/09/12 11:35:07;;;;;;;15.95;10.50;;;22.90;99.90;;;;;;5155162;27;20129;-76
2023/09/12 11:37:33;;;;;;;17.02;11.27;;;23.00;99.90;;;;;;5154976;27;20179;-75
2023/09/12 11:39:59;;;;;;;16.40;11.02;;;23.10;99.90;;;;;;5155093;27;20376;-76
2023/09/12 11:42:27;;;;;;;15.40;10.43;;;23.10;99.90;;;;;;5155025;27;20144;-76
2023/09/12 11:44:53;;;;;;;13.45;10.93;;;23.10;99.90;;;;;;5155008;27;20502;-76
2023/09/12 11:47:20;;;;;;;13.88;10.70;;;23.20;99.90;;;;;;5154472;27;20082;-76
2023/09/12 11:49:46;;;;;;;12.77;10.70;;;23.10;99.90;;;;;;5154941;27;20063;-78
2023/09/12 11:52:19;;;;;;;13.98;10.48;;;23.10;99.90;;;;;;5155154;27;20054;-77
2023/09/12 11:54:45;;;;;;;16.33;11.93;;;23.00;99.90;;;;;;5154944;27;20053;-77
2023/09/12 11:57:14;;;;;;;14.63;11.05;;;22.90;99.90;;;;;;5154897;27;20045;-77
2023/09/12 11:59:43;;;;;;;16.77;11.70;;;22.90;99.90;;;;;;5154955;27;20447;-78
2023/09/12 12:02:09;;;;;;;15.70;11.82;;;22.80;99.90;;;;;;5154562;27;20083;-76
2023/09/12 12:04:36;;;;;;;14.98;11.55;;;22.80;99.90;;;;;;5154587;27;20125;-76
2023/09/12 12:07:04;;;;;;;16.95;11.32;;;22.80;99.90;;;;;;5154592;27;20038;-76
2023/09/12 12:09:30;;;;;;;18.13;11.65;;;22.80;99.90;;;;;;5154919;27;20043;-76
2023/09/12 12:12:00;;;;;;;15.55;12.20;;;22.90;99.90;;;;;;5136210;27;20380;-77
2023/09/12 12:14:26;;;;;;;16.88;11.82;;;22.90;99.90;;;;;;5155015;27;20043;-76
2023/09/12 12:16:52;;;;;;;15.18;11.00;;;22.90;99.90;;;;;;5136057;27;20133;-76
2023/09/12 12:19:18;;;;;;;16.38;12.30;;;22.90;99.90;;;;;;5154827;27;20042;-76
2023/09/12 12:21:45;;;;;;;14.88;10.20;;;23.10;99.90;;;;;;5154594;27;20095;-75
2023/09/12 12:24:13;;;;;;;14.75;10.38;;;23.20;99.90;;;;;;5154881;27;20050;-76
2023/09/12 12:26:42;;;;;;;13.52;9.60;;;23.30;99.90;;;;;;5154596;27;20043;-75